Time;durP1;ratioP1;P1;durP2;ratioP2;P2;SDS_P1;SDS_P2;PMS_P1;PMS_P2;Temp;Humidity;BMP_temperature;BMP_pressure;BME280_temperature;BME280_humidity;BME280_pressure;Samples;Min_cycle;Max_cycle;Signal;HPM_P1;HPM_P2
2022/04/02 00:01:10;;;;;;;4.43;2.70;;;;;;;1.09;65.46;98971.00;5033908;28;20085;-80
2022/04/02 00:03:37;;;;;;;4.28;2.63;;;;;;;1.06;65.81;98970.06;5033486;28;20422;-79
2022/04/02 00:06:04;;;;;;;4.80;2.60;;;;;;;1.00;65.94;98958.78;5033746;28;20488;-78
2022/04/02 00:08:31;;;;;;;3.85;2.50;;;;;;;0.97;66.19;98956.13;5033826;28;20057;-77
2022/04/02 00:11:02;;;;;;;3.53;2.55;;;;;;;0.96;66.48;98940.66;5033539;28;20427;-77
2022/04/02 00:13:31;;;;;;;;;;;;;;;0.85;66.85;98942.06;5017546;28;20579;-78
2022/04/02 00:16:07;;;;;;;4.20;2.87;;;;;;;0.84;66.95;98946.34;5034731;28;19925;-79
2022/04/02 00:18:42;;;;;;;4.28;2.70;;;;;;;0.59;67.41;98914.78;5036934;28;20065;-79
2022/04/02 00:21:10;;;;;;;4.80;3.08;;;;;;;0.86;67.33;98949.84;5045982;28;20033;-80
2022/04/02 00:23:39;;;;;;;5.13;3.33;;;;;;;0.82;67.79;98950.56;5056901;28;20065;-78
2022/04/02 00:26:08;;;;;;;3.20;2.88;;;;;;;0.58;68.20;98933.63;5037813;28;20061;-78
2022/04/02 00:28:38;;;;;;;5.13;3.13;;;;;;;0.60;68.53;98944.84;5033793;28;20049;-79
2022/04/02 00:31:09;;;;;;;4.18;3.13;;;;;;;0.45;68.64;98905.81;5033532;28;20140;-80
2022/04/02 00:33:39;;;;;;;5.43;3.70;;;;;;;0.65;69.31;98951.81;5032007;28;20503;-80
2022/04/02 00:36:07;;;;;;;4.53;3.08;;;;;;;0.52;69.14;98933.47;4999011;28;20454;-79
2022/04/02 00:38:37;;;;;;;5.63;3.88;;;;;;;0.58;69.56;98953.31;5033489;28;20061;-78
2022/04/02 00:41:03;;;;;;;5.00;3.72;;;;;;;0.57;69.69;98928.44;5032851;28;20123;-79
2022/04/02 00:43:33;;;;;;;6.05;3.35;;;;;;;0.55;69.90;98924.97;4999189;28;20122;-79
2022/04/02 00:46:05;;;;;;;6.10;3.72;;;;;;;0.45;70.02;98918.66;5032947;28;20053;-79
2022/04/02 00:48:32;;;;;;;5.93;3.70;;;;;;;0.33;70.37;98901.22;5033108;28;20053;-78
2022/04/02 00:51:01;;;;;;;6.38;3.97;;;;;;;0.34;70.24;98889.25;5033233;28;20148;-79
2022/04/02 00:53:39;;;;;;;6.75;3.83;;;;;;;0.32;70.35;98914.00;5032925;28;20077;-79
2022/04/02 00:56:06;;;;;;;6.10;4.20;;;;;;;0.44;70.59;98903.22;5031798;28;20077;-78
2022/04/02 00:58:33;;;;;;;7.57;4.70;;;;;;;0.43;70.61;98901.47;5015313;28;20065;-78
2022/04/02 01:01:01;;;;;;;5.80;4.40;;;;;;;0.44;70.90;98906.66;5032922;28;20099;-79
2022/04/02 01:03:35;;;;;;;9.73;5.63;;;;;;;0.43;71.21;98904.94;5015623;28;20053;-78
2022/04/02 01:06:17;;;;;;;10.98;6.43;;;;;;;0.31;71.12;98886.59;5017290;28;20057;-78
2022/04/02 01:08:45;;;;;;;11.57;7.45;;;;;;;0.25;70.88;98883.84;5031706;28;20152;-79
2022/04/02 01:11:11;;;;;;;18.02;8.80;;;;;;;0.25;70.96;98871.00;5032698;28;20388;-78
2022/04/02 01:13:45;;;;;;;12.27;6.70;;;;;;;0.30;71.15;98884.84;5015362;28;20144;-78
2022/04/02 01:16:13;;;;;;;12.07;7.75;;;;;;;0.29;71.07;98895.94;5032572;28;20144;-77
2022/04/02 01:18:42;;;;;;;13.68;9.40;;;;;;;0.19;71.13;98861.41;5015310;28;20049;-77
2022/04/02 01:21:13;;;;;;;16.05;9.35;;;;;;;0.27;71.46;98871.91;5015325;28;20535;-79
2022/04/02 01:23:45;;;;;;;15.38;8.13;;;;;;;0.20;70.71;98869.16;5015547;28;20103;-78
2022/04/02 01:26:18;;;;;;;;;;;;;;;0.14;70.65;98868.13;5015848;28;20458;-78
2022/04/02 01:28:53;;;;;;;12.77;7.50;;;;;;;0.18;70.48;98893.94;5015966;28;20367;-79
2022/04/02 01:31:27;;;;;;;14.38;7.22;;;;;;;-0.11;70.61;98815.19;5015485;28;20119;-79
2022/04/02 01:33:56;;;;;;;10.98;6.22;;;;;;;0.19;70.11;98874.25;5015901;28;20053;-81
2022/04/02 01:36:27;;;;;;;10.15;5.90;;;;;;;0.19;69.95;98857.16;5015153;28;20055;-77
2022/04/02 01:39:09;;;;;;;11.85;7.57;;;;;;;0.23;70.28;98860.66;5015396;28;20056;-79
2022/04/02 01:41:36;;;;;;;13.60;7.25;;;;;;;0.06;69.63;98811.38;5015072;28;20525;-80
2022/04/02 01:44:03;;;;;;;14.85;7.03;;;;;;;0.27;69.45;98857.38;5014912;28;20053;-78
2022/04/02 01:46:32;;;;;;;6.80;4.63;;;;;;;0.26;69.73;98847.03;5032109;28;20423;-81
2022/04/02 01:48:59;;;;;;;11.00;6.55;;;;;;;0.32;69.33;98875.47;5032333;28;20140;-78
2022/04/02 01:51:26;;;;;;;8.77;6.35;;;;;;;0.30;69.03;98844.63;5014988;28;20569;-80
2022/04/02 01:53:52;;;;;;;10.95;6.20;;;;;;;0.30;68.99;98836.03;5032519;28;20522;-78
2022/04/02 01:56:20;;;;;;;7.68;5.22;;;;;;;0.31;69.03;98855.75;5034085;28;20045;-79
2022/04/02 01:59:13;;;;;;;7.13;4.68;;;;;;;-0.05;69.29;98794.81;5035530;28;20484;-78
2022/04/02 02:01:42;;;;;;;6.60;3.95;;;;;;;0.22;69.12;98852.94;5002528;28;20061;-78
2022/04/02 02:04:11;;;;;;;7.45;4.47;;;;;;;-0.12;69.21;98791.22;5018433;28;20091;-80
2022/04/02 02:06:39;;;;;;;6.90;4.75;;;;;;;0.14;69.09;98837.31;5036447;28;20049;-78
2022/04/02 02:09:11;;;;;;;7.50;5.03;;;;;;;0.15;69.00;98847.63;5043587;28;20049;-78
2022/04/02 02:12:00;;;;;;;5.82;3.70;;;;;;;0.13;69.11;98827.84;5043392;28;20056;-79
2022/04/02 02:14:53;;;;;;;6.15;4.05;;;;;;;0.16;68.86;98838.22;5032276;28;20061;-78
2022/04/02 02:17:20;;;;;;;7.10;4.03;;;;;;;0.17;68.92;98828.00;5018271;28;20136;-80
2022/04/02 02:19:56;;;;;;;5.57;3.30;;;;;;;0.13;68.92;98840.69;5018335;28;20057;-79
2022/04/02 02:22:24;;;;;;;5.15;3.70;;;;;;;0.03;68.71;98819.03;5001948;28;20402;-79
2022/04/02 02:24:51;;;;;;;3.63;3.00;;;;;;;0.10;68.95;98848.31;5035903;28;20407;-79
2022/04/02 02:27:18;;;;;;;5.00;3.38;;;;;;;0.09;68.68;98837.19;5018618;28;20162;-78
2022/04/02 02:29:48;;;;;;;5.05;3.13;;;;;;;0.08;68.63;98852.53;5018347;28;20045;-80
2022/04/02 02:32:20;;;;;;;4.22;3.00;;;;;;;-0.09;68.91;98818.66;5018236;28;20056;-79
2022/04/02 02:37:37;;;;;;;5.00;3.60;;;;;;;-0.30;68.68;98777.81;5017858;28;20045;-80
2022/04/02 02:40:09;;;;;;;4.13;3.13;;;;;;;-0.15;68.86;98803.97;5017806;28;20107;-79
2022/04/02 02:42:36;;;;;;;5.25;2.50;;;;;;;0.04;68.81;98864.41;5017401;28;20135;-81
2022/04/02 02:45:20;;;;;;;5.82;3.78;;;;;;;-0.07;68.49;98822.16;5018804;28;20529;-80
2022/04/02 02:47:47;;;;;;;3.13;2.55;;;;;;;0.06;68.58;98865.31;5018493;28;20050;-79
2022/04/02 02:50:18;;;;;;;;;;;;;;;-0.10;68.69;98840.91;5021130;28;20068;-78
2022/04/02 02:52:54;;;;;;;4.75;2.75;;;;;;;-0.11;68.84;98853.69;5055823;28;19985;-79
2022/04/02 02:55:22;;;;;;;7.65;2.95;;;;;;;-0.10;68.86;98866.56;5062926;28;20033;-79
2022/04/02 02:57:49;;;;;;;4.68;3.20;;;;;;;-0.05;68.56;98848.72;5062830;28;20053;-79
2022/04/02 03:00:19;;;;;;;5.88;3.28;;;;;;;-0.08;68.53;98856.38;5054887;28;20045;-79
2022/04/02 03:02:51;;;;;;;6.43;3.13;;;;;;;-0.08;68.21;98853.78;5037367;28;20049;-80
2022/04/02 03:05:21;;;;;;;5.32;3.03;;;;;;;-0.05;68.45;98869.28;5054446;28;20482;-79
2022/04/02 03:07:51;;;;;;;5.85;2.95;;;;;;;-0.20;68.27;98826.03;5036769;28;20048;-78
2022/04/02 03:10:30;;;;;;;5.45;2.88;;;;;;;-0.09;68.27;98873.44;5036892;28;20076;-79
2022/04/02 03:12:58;;;;;;;5.43;3.15;;;;;;;-0.08;67.96;98864.06;5036860;28;20052;-77
2022/04/02 03:15:30;;;;;;;6.45;3.00;;;;;;;-0.04;67.80;98869.31;5054984;28;20060;-78
2022/04/02 03:18:05;;;;;;;6.53;3.67;;;;;;;-0.07;67.79;98863.22;5037163;28;20088;-77
2022/04/02 03:20:37;;;;;;;5.00;3.05;;;;;;;-0.06;68.04;98862.41;5036868;28;20060;-79
2022/04/02 03:23:06;;;;;;;4.68;3.10;;;;;;;-0.03;67.76;98872.75;5054607;28;20048;-79
2022/04/02 03:25:33;;;;;;;5.20;3.42;;;;;;;-0.05;68.17;98866.72;5054662;28;20151;-79
2022/04/02 03:28:01;;;;;;;6.75;3.80;;;;;;;-0.07;68.08;98873.50;5036571;28;20060;-78
2022/04/02 03:30:28;;;;;;;4.50;3.05;;;;;;;-0.11;67.91;98862.25;5054196;28;20049;-78
2022/04/02 03:32:57;;;;;;;4.72;3.08;;;;;;;-0.16;68.50;98853.56;5037063;28;20144;-79
2022/04/02 03:35:25;;;;;;;5.75;3.47;;;;;;;-0.26;69.04;98839.59;5036632;28;20057;-80
2022/04/02 03:37:53;;;;;;;4.03;3.13;;;;;;;-0.25;69.06;98846.44;5036252;28;20045;-80
2022/04/02 03:40:23;;;;;;;5.72;3.15;;;;;;;-0.22;70.03;98835.41;5036757;28;20053;-80
2022/04/02 03:42:52;;;;;;;5.70;3.50;;;;;;;-0.29;69.83;98826.66;5053754;28;20430;-78
2022/04/02 03:45:25;;;;;;;5.65;3.78;;;;;;;-0.32;70.46;98818.88;5036669;28;20057;-78
2022/04/02 03:47:55;;;;;;;5.40;3.50;;;;;;;-0.37;70.47;98811.84;5054212;28;20052;-78
2022/04/02 03:50:22;;;;;;;6.38;3.45;;;;;;;-0.31;70.91;98833.44;5036411;28;20063;-79
2022/04/02 03:52:53;;;;;;;5.55;3.40;;;;;;;-0.35;71.09;98830.72;5036648;28;20083;-80
2022/04/02 03:55:43;;;;;;;6.10;3.75;;;;;;;-0.31;71.34;98847.97;5055776;28;20049;-80
2022/04/02 03:58:21;;;;;;;7.32;3.88;;;;;;;-0.57;71.91;98793.28;5039754;28;20059;-80
2022/04/02 04:00:49;;;;;;;5.22;3.22;;;;;;;-0.51;71.96;98822.56;5041629;28;20052;-79
2022/04/02 04:03:17;;;;;;;7.28;4.20;;;;;;;-0.74;72.07;98796.19;5022156;28;20079;-78
2022/04/02 04:05:48;;;;;;;7.05;3.33;;;;;;;-0.50;73.29;98841.38;5036892;28;20045;-81
2022/04/02 04:08:16;;;;;;;4.97;3.15;;;;;;;-0.57;73.06;98842.91;5035782;28;20152;-79
2022/04/02 04:10:44;;;;;;;5.15;3.50;;;;;;;-0.56;73.38;98843.75;5036081;28;20057;-81
2022/04/02 04:13:15;;;;;;;5.55;3.45;;;;;;;-0.86;73.58;98800.94;5036454;28;20075;-79
2022/04/02 04:15:43;;;;;;;6.57;3.75;;;;;;;-0.69;73.78;98843.41;5035790;28;20059;-79
2022/04/02 04:18:11;;;;;;;4.28;3.17;;;;;;;-0.81;73.48;98813.91;5035159;28;20094;-78
2022/04/02 04:20:40;;;;;;;6.55;3.90;;;;;;;-0.53;73.96;98851.56;5035478;28;20055;-78
2022/04/02 04:23:12;;;;;;;4.65;3.03;;;;;;;-0.51;73.94;98866.19;5029475;28;20056;-78
2022/04/02 04:25:41;;;;;;;5.03;3.70;;;;;;;-0.71;73.59;98832.22;5035501;28;20580;-80
2022/04/02 04:28:10;;;;;;;6.38;3.75;;;;;;;-0.53;74.36;98842.16;5035504;28;20049;-78
2022/04/02 04:30:37;;;;;;;5.72;3.63;;;;;;;-0.81;74.06;98795.97;5035526;28;20049;-80
2022/04/02 04:33:05;;;;;;;6.22;3.50;;;;;;;-0.50;73.74;98838.81;5035815;28;20148;-80
2022/04/02 04:35:32;;;;;;;5.65;3.20;;;;;;;-0.68;74.04;98791.25;5042981;28;20644;-80
2022/04/02 04:37:59;;;;;;;3.95;3.15;;;;;;;-0.69;73.93;98786.06;5039555;28;20418;-80
2022/04/02 04:40:28;;;;;;;5.47;3.80;;;;;;;-0.49;73.72;98814.94;5024752;28;20502;-78
2022/04/02 04:42:56;;;;;;;6.53;3.90;;;;;;;-0.40;73.72;98822.03;5022942;28;20088;-79
2022/04/02 04:45:45;;;;;;;4.65;3.25;;;;;;;-0.66;72.92;98760.53;5024177;28;20049;-79
2022/04/02 04:48:13;;;;;;;4.97;3.40;;;;;;;-0.25;72.94;98823.34;5017839;28;20550;-80
2022/04/02 04:50:48;;;;;;;8.18;3.80;;;;;;;-0.25;72.91;98800.25;5053045;28;20090;-79
2022/04/02 04:53:17;;;;;;;4.65;3.50;;;;;;;-0.21;72.42;98822.63;5033957;28;20056;-79
2022/04/02 04:55:44;;;;;;;5.18;2.78;;;;;;;-0.30;72.52;98791.56;5035602;28;20057;-79
2022/04/02 04:58:15;;;;;;;5.75;3.45;;;;;;;-0.35;72.82;98803.34;5034920;28;20499;-77
2022/04/02 05:00:44;;;;;;;6.93;3.90;;;;;;;-0.62;73.32;98757.25;5052928;28;20057;-78
2022/04/02 05:03:12;;;;;;;6.22;3.75;;;;;;;-0.33;73.42;98806.84;5018790;28;20110;-77
2022/04/02 05:05:47;;;;;;;5.38;2.95;;;;;;;-0.46;73.54;98803.03;5018876;28;20072;-79
2022/04/02 05:08:20;;;;;;;8.57;3.80;;;;;;;-0.48;74.08;98793.56;5031831;28;20132;-79
2022/04/02 05:10:49;;;;;;;4.35;3.55;;;;;;;-0.43;74.13;98795.44;5042787;28;20057;-78
2022/04/02 05:13:22;;;;;;;6.32;3.75;;;;;;;-0.35;74.22;98799.94;5024579;28;20148;-78
2022/04/02 05:15:52;;;;;;;5.78;3.95;;;;;;;-0.24;74.14;98807.13;5035406;28;20053;-78
2022/04/02 05:18:22;;;;;;;8.60;4.35;;;;;;;-0.05;73.79;98813.66;5052163;28;20079;-79
2022/04/02 05:20:49;;;;;;;6.20;3.60;;;;;;;0.01;73.57;98812.97;5052868;28;20052;-79
2022/04/02 05:23:17;;;;;;;6.03;3.90;;;;;;;-0.14;73.97;98792.00;5038276;28;20080;-77
2022/04/02 05:25:49;;;;;;;6.40;3.45;;;;;;;-0.14;73.77;98795.44;5060382;28;20097;-79
2022/04/02 05:28:16;;;;;;;7.32;4.07;;;;;;;-0.46;74.18;98750.84;5055516;28;20056;-77
2022/04/02 05:30:44;;;;;;;6.70;4.13;;;;;;;-0.08;74.18;98803.31;5038103;28;20060;-79
2022/04/02 05:33:11;;;;;;;5.80;4.03;;;;;;;-0.03;73.91;98790.59;5056077;28;20476;-80
2022/04/02 05:35:59;;;;;;;7.82;4.03;;;;;;;0.06;73.95;98797.69;5054714;28;20059;-80
2022/04/02 05:38:27;;;;;;;5.60;4.03;;;;;;;-0.06;74.19;98777.69;5038942;28;20064;-78
2022/04/02 05:40:58;;;;;;;7.18;4.03;;;;;;;0.11;74.12;98778.16;5034408;28;20147;-78
2022/04/02 05:43:35;;;;;;;;;;;;;;;0.05;73.99;98784.00;5054495;28;20149;-78
2022/04/02 05:46:03;;;;;;;5.10;3.70;;;;;;;0.12;74.46;98792.72;5060223;28;19924;-78
2022/04/02 05:48:31;;;;;;;5.75;4.15;;;;;;;-0.16;73.88;98727.78;5062251;28;20053;-82
2022/04/02 05:50:58;;;;;;;5.43;3.40;;;;;;;0.09;73.80;98775.53;5042311;28;20533;-80
2022/04/02 05:53:26;;;;;;;6.00;3.88;;;;;;;-0.05;74.55;98776.84;5056496;28;20108;-79
2022/04/02 05:55:53;;;;;;;6.05;4.10;;;;;;;-0.01;74.73;98781.25;5055992;28;20605;-79
2022/04/02 05:58:20;;;;;;;4.80;3.30;;;;;;;0.01;74.60;98777.03;5055886;28;20080;-78
2022/04/02 06:00:48;;;;;;;7.20;3.85;;;;;;;0.12;74.37;98791.03;5038360;28;20056;-79
2022/04/02 06:03:16;;;;;;;6.75;4.07;;;;;;;0.18;74.58;98780.94;5056211;28;20057;-80
2022/04/02 06:05:44;;;;;;;6.15;4.20;;;;;;;0.11;74.67;98761.06;5055729;28;20052;-80
2022/04/02 06:08:11;;;;;;;5.88;3.40;;;;;;;0.22;74.44;98783.59;5056079;28;20052;-79
2022/04/02 06:10:38;;;;;;;7.07;3.45;;;;;;;-0.04;74.38;98709.28;5055486;28;20147;-80
2022/04/02 06:13:07;;;;;;;5.78;3.35;;;;;;;0.28;73.79;98766.66;5054927;28;20056;-80
2022/04/02 06:15:34;;;;;;;5.40;3.93;;;;;;;0.33;74.49;98736.78;5056016;28;20056;-78
2022/04/02 06:18:02;;;;;;;5.20;3.83;;;;;;;0.45;74.02;98728.53;5036358;28;20311;-81
2022/04/02 06:20:29;;;;;;;5.15;3.50;;;;;;;0.63;73.55;98758.97;5054813;28;20052;-78
2022/04/02 06:22:59;;;;;;;4.82;3.63;;;;;;;0.19;73.47;98679.94;5055873;28;20091;-78
2022/04/02 06:25:26;;;;;;;6.03;3.80;;;;;;;0.49;73.43;98745.75;5055509;28;20056;-78
2022/04/02 06:27:54;;;;;;;5.80;3.60;;;;;;;0.62;73.50;98754.66;5055509;28;20081;-78
2022/04/02 06:30:21;;;;;;;6.03;3.45;;;;;;;0.60;73.26;98736.66;5055485;28;20052;-81
2022/04/02 06:32:56;;;;;;;6.57;3.40;;;;;;;0.58;73.19;98755.41;5055692;28;20116;-81
2022/04/02 06:35:24;;;;;;;4.55;3.08;;;;;;;0.46;73.93;98727.72;5021355;28;20048;-79
2022/04/02 06:37:55;;;;;;;5.57;3.15;;;;;;;0.44;73.46;98719.09;5037581;28;20083;-79
2022/04/02 06:40:26;;;;;;;5.35;3.92;;;;;;;0.54;73.80;98746.78;5055341;28;20118;-79
2022/04/02 06:42:56;;;;;;;6.13;4.03;;;;;;;0.49;73.61;98701.22;5037276;28;20057;-78
2022/04/02 06:45:36;;;;;;;6.72;3.92;;;;;;;0.69;73.42;98732.53;5038342;28;20052;-80
2022/04/02 06:48:05;;;;;;;6.78;3.75;;;;;;;0.73;73.38;98711.22;5055465;28;20499;-78
2022/04/02 06:50:33;;;;;;;7.18;4.53;;;;;;;0.78;72.97;98718.22;5056014;28;20120;-80
2022/04/02 06:53:00;;;;;;;5.70;3.75;;;;;;;0.77;73.34;98720.75;5022485;28;20048;-80
2022/04/02 06:55:35;;;;;;;6.50;3.53;;;;;;;0.93;72.84;98702.28;5036812;28;20597;-79
2022/04/02 06:58:03;;;;;;;8.13;3.70;;;;;;;1.09;72.67;98692.34;5054588;28;20045;-80
2022/04/02 07:00:31;;;;;;;5.53;3.88;;;;;;;1.09;72.64;98702.63;5036924;28;20514;-78
2022/04/02 07:02:58;;;;;;;6.28;3.70;;;;;;;1.08;72.72;98681.19;5054794;28;20070;-81
2022/04/02 07:05:25;;;;;;;6.32;3.50;;;;;;;1.16;72.19;98694.22;5037208;28;20106;-80
2022/04/02 07:07:52;;;;;;;5.82;3.92;;;;;;;1.07;72.52;98655.44;5054788;28;20131;-81
2022/04/02 07:10:20;;;;;;;5.88;3.60;;;;;;;1.07;72.48;98653.72;5054584;28;20569;-81
2022/04/02 07:12:47;;;;;;;5.13;3.28;;;;;;;1.02;72.29;98658.78;5055188;28;20056;-79
2022/04/02 07:15:14;;;;;;;5.53;3.80;;;;;;;1.24;72.36;98674.66;5054400;28;20477;-78
2022/04/02 07:17:42;;;;;;;4.97;3.75;;;;;;;1.22;72.52;98666.91;5053294;28;20545;-79
2022/04/02 07:20:12;;;;;;;7.53;3.50;;;;;;;1.34;72.30;98656.03;5055152;28;20099;-79
2022/04/02 07:22:42;;;;;;;4.60;3.60;;;;;;;1.29;71.92;98625.88;5036521;28;20482;-84
2022/04/02 07:25:10;;;;;;;6.43;3.40;;;;;;;1.05;71.83;98610.81;5053979;28;20505;-79
2022/04/02 07:27:38;;;;;;;4.45;3.20;;;;;;;1.23;72.88;98663.53;5057301;28;20053;-82
2022/04/02 07:30:07;;;;;;;4.88;3.10;;;;;;;1.14;72.49;98655.63;5037877;28;20077;-82
2022/04/02 07:32:34;;;;;;;7.07;3.10;;;;;;;1.05;73.13;98693.13;5037035;28;20103;-79
2022/04/02 07:35:02;;;;;;;3.40;3.10;;;;;;;1.01;73.28;98675.06;5055410;28;20139;-80
2022/04/02 07:37:56;;;;;;;4.75;3.40;;;;;;;0.96;73.66;98650.91;5037127;28;20506;-81
2022/04/02 07:40:28;;;;;;;3.65;2.90;;;;;;;0.77;73.09;98630.78;5036943;28;20053;-80
2022/04/02 07:43:15;;;;;;;5.07;3.83;;;;;;;0.96;73.57;98679.19;5023908;28;20056;-80
2022/04/02 07:45:47;;;;;;;5.88;3.28;;;;;;;0.75;73.90;98605.06;5054239;28;20154;-81
2022/04/02 07:48:18;;;;;;;4.22;3.13;;;;;;;1.05;72.99;98621.97;5036549;28;20056;-78
2022/04/02 07:50:47;;;;;;;5.15;3.45;;;;;;;1.28;72.74;98640.47;5054755;28;20041;-78
2022/04/02 07:53:21;;;;;;;5.82;2.88;;;;;;;1.33;72.50;98650.84;5054206;28;20055;-78
2022/04/02 07:55:51;;;;;;;6.20;3.70;;;;;;;1.12;72.35;98604.94;5039576;28;20048;-78
2022/04/02 07:58:25;;;;;;;4.43;3.17;;;;;;;1.21;72.14;98633.47;5071291;28;20040;-77
2022/04/02 08:00:54;;;;;;;3.53;2.80;;;;;;;1.31;72.00;98624.22;5275392;23;21092;-82
2022/04/02 08:03:28;;;;;;;4.90;2.85;;;;;;;1.23;72.06;98647.22;4977981;28;20474;-88
2022/04/02 08:06:35;;;;;;;6.07;3.73;;;;;;;1.17;72.50;98629.94;4977744;28;20054;-80
2022/04/02 08:09:03;;;;;;;5.65;3.33;;;;;;;1.15;72.28;98618.75;5013445;28;20300;-82
2022/04/02 08:11:38;;;;;;;4.00;2.85;;;;;;;1.16;72.44;98611.91;4980455;28;20058;-83
2022/04/02 08:14:08;;;;;;;4.68;3.20;;;;;;;1.31;72.52;98614.81;5009327;28;20399;-81
2022/04/02 08:16:42;;;;;;;3.88;3.33;;;;;;;1.30;71.94;98599.34;5014414;28;20057;-87
2022/04/02 08:19:12;;;;;;;4.43;3.47;;;;;;;1.34;71.42;98594.28;5014623;28;20153;-83
2022/04/02 08:21:39;;;;;;;6.07;3.80;;;;;;;1.39;71.86;98579.78;4996639;28;20469;-82
2022/04/02 08:32:30;;;;;;;4.47;3.10;;;;;;;1.50;71.37;98566.25;4993150;28;20069;-88
2022/04/02 08:35:07;;;;;;;;;;;;;;;1.48;71.52;98561.06;4993524;28;20064;-85
2022/04/02 08:37:58;;;;;;;5.97;3.40;;;;;;;1.46;71.51;98567.91;4994232;28;19933;-84
2022/04/02 08:40:58;;;;;;;5.75;4.18;;;;;;;1.38;71.71;98566.91;4976430;28;20057;-86
2022/04/02 08:44:04;;;;;;;6.88;3.97;;;;;;;1.20;71.86;98563.09;4963490;28;20084;-84
2022/04/02 08:47:04;;;;;;;5.07;3.58;;;;;;;1.11;71.87;98567.22;5012085;28;20081;-84
2022/04/02 08:49:51;;;;;;;4.57;3.38;;;;;;;1.07;71.77;98557.69;5009906;28;20502;-87
2022/04/02 08:52:34;;;;;;;5.22;3.00;;;;;;;0.89;72.17;98545.34;4980791;28;20050;-82
2022/04/02 08:55:13;;;;;;;4.07;3.40;;;;;;;0.97;72.10;98531.81;5013086;28;20132;-87
2022/04/02 08:58:22;;;;;;;4.80;3.15;;;;;;;0.81;72.28;98502.31;4993106;28;20057;-86
2022/04/02 09:01:22;;;;;;;6.60;3.95;;;;;;;1.11;71.75;98532.06;5017098;28;20237;-86
2022/04/02 09:03:57;;;;;;;4.63;3.65;;;;;;;1.22;72.12;98535.72;4983521;28;20578;-84
2022/04/02 09:06:31;;;;;;;5.72;4.40;;;;;;;1.27;71.98;98535.81;5011982;28;20061;-84
2022/04/02 09:09:33;;;;;;;7.18;4.05;;;;;;;1.12;71.33;98553.50;4994463;28;20057;-86
2022/04/02 09:12:20;;;;;;;4.00;3.20;;;;;;;0.95;71.94;98536.06;5001105;28;20062;-80
2022/04/02 09:15:13;;;;;;;4.07;2.80;;;;;;;0.90;72.29;98532.50;4986825;28;20050;-82
2022/04/02 09:18:08;;;;;;;5.97;3.80;;;;;;;0.82;72.17;98529.78;4972397;28;20046;-84
2022/04/02 09:20:57;;;;;;;5.85;3.38;;;;;;;0.77;72.52;98538.22;4977780;28;20397;-87
2022/04/02 09:23:52;;;;;;;5.47;3.60;;;;;;;0.78;72.91;98530.56;4962791;28;20129;-86
2022/04/02 09:27:02;;;;;;;5.18;3.35;;;;;;;0.79;72.42;98504.00;4975439;28;20050;-85
2022/04/02 09:29:54;;;;;;;5.07;4.35;;;;;;;0.94;72.64;98493.16;4977666;28;20105;-87
2022/04/02 09:32:37;;;;;;;4.45;3.70;;;;;;;1.10;71.71;98507.19;4956816;28;20424;-85
2022/04/02 09:35:36;;;;;;;5.40;3.45;;;;;;;1.01;71.56;98465.84;4977222;28;20065;-88
2022/04/02 09:38:26;;;;;;;5.43;3.83;;;;;;;1.20;71.53;98457.63;4949741;28;20053;-86
2022/04/02 09:41:10;;;;;;;6.22;4.32;;;;;;;1.29;71.63;98453.50;4993979;28;20074;-84
2022/04/02 09:43:55;;;;;;;4.38;3.38;;;;;;;1.15;71.47;98459.28;4976000;28;20495;-85
2022/04/02 09:46:45;;;;;;;4.63;3.13;;;;;;;1.22;71.74;98470.53;4991389;28;20050;-84
2022/04/02 09:49:33;;;;;;;3.85;3.10;;;;;;;1.16;71.66;98455.88;4966663;28;20474;-89
2022/04/02 09:52:06;;;;;;;5.45;3.65;;;;;;;1.06;71.96;98445.41;4983148;28;20060;-88
2022/04/02 09:55:06;;;;;;;8.75;5.18;;;;;;;1.08;72.32;98433.44;4954408;28;20050;-85
2022/04/02 09:57:46;;;;;;;;;;;;;;;1.18;72.18;98443.03;4977878;28;20050;-87
2022/04/02 10:00:21;;;;;;;6.13;3.50;;;;;;;1.12;72.48;98450.63;4994356;28;19925;-85
2022/04/02 10:03:00;;;;;;;5.60;3.83;;;;;;;1.14;72.77;98475.56;4946065;28;20134;-87
2022/04/02 10:05:42;;;;;;;5.03;3.20;;;;;;;1.03;72.67;98448.75;4992823;28;20054;-89
2022/04/02 10:08:21;;;;;;;5.45;4.13;;;;;;;1.06;72.98;98435.97;4991246;28;20085;-87
2022/04/02 10:10:51;;;;;;;5.35;4.07;;;;;;;1.14;72.48;98425.78;4955313;28;20050;-83
2022/04/02 10:13:24;;;;;;;6.90;3.75;;;;;;;1.23;72.50;98428.56;4988739;28;20069;-86
2022/04/02 10:15:55;;;;;;;4.63;3.60;;;;;;;1.19;72.40;98419.91;4985216;28;20054;-90
2022/04/02 10:18:25;;;;;;;4.55;3.50;;;;;;;1.23;72.31;98437.13;4979046;28;20305;-88
2022/04/02 10:20:53;;;;;;;4.90;3.33;;;;;;;1.18;72.41;98419.88;4970578;28;20058;-86
2022/04/02 10:23:23;;;;;;;5.57;3.28;;;;;;;1.14;72.54;98410.38;4990270;28;20058;-83
2022/04/02 10:26:16;;;;;;;5.68;4.00;;;;;;;1.14;72.25;98418.09;4986419;28;20051;-84
2022/04/02 10:28:51;;;;;;;6.25;3.95;;;;;;;0.95;72.63;98373.19;4982688;28;20055;-83
2022/04/02 10:31:36;;;;;;;6.50;4.00;;;;;;;1.17;72.23;98397.56;4960177;28;20062;-84
2022/04/02 10:34:27;;;;;;;7.82;4.07;;;;;;;1.14;72.45;98402.66;4978325;28;20050;-84
2022/04/02 10:37:04;;;;;;;5.88;3.45;;;;;;;1.10;72.79;98412.03;4977311;28;20082;-83
2022/04/02 10:39:36;;;;;;;6.90;4.10;;;;;;;0.97;73.40;98374.09;4977443;28;20105;-86
2022/04/02 10:42:08;;;;;;;5.97;4.45;;;;;;;0.81;73.62;98355.78;4964362;28;20123;-84
2022/04/02 10:44:45;;;;;;;4.50;3.28;;;;;;;0.95;73.89;98388.63;4976617;28;20082;-82
2022/04/02 10:47:16;;;;;;;5.30;3.70;;;;;;;0.89;74.67;98380.78;4960095;28;20054;-84
2022/04/02 10:49:47;;;;;;;4.22;3.70;;;;;;;0.90;74.92;98383.38;4977688;28;20105;-83
2022/04/02 10:52:15;;;;;;;5.30;3.40;;;;;;;0.86;74.68;98379.03;4977173;28;20097;-85
2022/04/02 10:54:48;;;;;;;6.88;4.22;;;;;;;0.89;75.26;98385.94;4976068;28;20051;-85
2022/04/02 10:57:16;;;;;;;6.20;3.83;;;;;;;0.83;75.31;98376.41;4976557;28;20472;-84
2022/04/02 10:59:46;;;;;;;5.18;3.47;;;;;;;0.83;75.48;98389.25;4975961;28;20054;-84
2022/04/02 11:02:22;;;;;;;5.35;3.50;;;;;;;0.72;75.68;98398.47;4984267;28;20073;-84
2022/04/02 11:05:06;;;;;;;4.20;3.67;;;;;;;0.55;75.88;98373.31;5000463;28;20049;-86
2022/04/02 11:07:40;;;;;;;5.95;3.95;;;;;;;0.57;76.52;98384.47;5006297;28;20069;-85
2022/04/02 11:10:11;;;;;;;7.10;4.05;;;;;;;0.66;76.69;98403.50;4990903;28;20054;-84
2022/04/02 11:12:44;;;;;;;;;;;;;;;0.59;76.90;98410.22;5004012;28;20145;-85
2022/04/02 11:15:23;;;;;;;4.53;3.55;;;;;;;0.57;77.00;98423.03;5003238;28;19988;-86
2022/04/02 11:17:52;;;;;;;6.13;4.30;;;;;;;0.68;76.76;98433.53;5009274;28;20116;-86
2022/04/02 11:20:35;;;;;;;6.32;4.40;;;;;;;0.58;76.70;98424.78;5002860;28;20046;-85
2022/04/02 11:23:17;;;;;;;5.85;3.97;;;;;;;0.67;77.43;98442.09;4988458;28;20129;-84
2022/04/02 11:25:49;;;;;;;7.90;5.03;;;;;;;0.69;77.51;98449.78;4988889;28;20038;-85
2022/04/02 11:28:20;;;;;;;7.28;5.13;;;;;;;0.74;77.66;98451.63;4986015;28;20042;-83
2022/04/02 11:31:01;;;;;;;8.98;5.40;;;;;;;0.67;77.77;98434.38;4989281;28;20052;-84
2022/04/02 11:33:32;;;;;;;6.93;4.88;;;;;;;0.68;77.73;98441.22;5007322;28;20054;-84
2022/04/02 11:36:06;;;;;;;5.85;4.55;;;;;;;0.63;78.36;98430.00;5013668;28;20060;-82
2022/04/02 11:38:39;;;;;;;8.63;5.03;;;;;;;0.74;78.27;98437.94;5007866;28;20057;-84
2022/04/02 11:41:31;;;;;;;7.85;5.13;;;;;;;0.66;78.70;98434.34;5006223;28;20057;-85
2022/04/02 11:44:16;;;;;;;8.30;5.15;;;;;;;0.66;78.55;98424.91;5007431;28;20050;-87
2022/04/02 11:47:16;;;;;;;6.38;3.95;;;;;;;0.50;78.84;98392.91;4991981;28;20057;-85
2022/04/02 11:49:46;;;;;;;7.53;5.13;;;;;;;0.39;79.35;98346.47;4955574;28;20054;-86
2022/04/02 11:52:16;;;;;;;7.53;4.80;;;;;;;0.31;79.69;98336.88;5016253;28;20050;-85
2022/04/02 11:54:49;;;;;;;10.18;5.68;;;;;;;0.44;79.84;98358.53;5004129;28;20057;-83
2022/04/02 11:57:18;;;;;;;8.32;5.50;;;;;;;0.48;80.33;98379.16;5020133;28;20050;-85
2022/04/02 11:59:58;;;;;;;8.13;5.68;;;;;;;0.51;79.85;98356.09;4989270;28;20061;-85
2022/04/02 12:02:40;;;;;;;7.20;5.30;;;;;;;0.42;79.92;98337.94;5024588;28;20093;-86
2022/04/02 12:05:11;;;;;;;8.05;5.28;;;;;;;0.59;79.61;98353.69;5005325;28;20495;-88
2022/04/02 12:07:42;;;;;;;9.43;5.95;;;;;;;0.66;79.82;98346.94;5021763;28;20058;-87
2022/04/02 12:10:34;;;;;;;8.25;4.68;;;;;;;0.58;80.07;98354.50;5018439;28;20061;-87
2022/04/02 12:13:08;;;;;;;8.93;5.33;;;;;;;0.32;79.69;98321.50;5017928;28;20050;-86
2022/04/02 12:15:37;;;;;;;7.95;5.57;;;;;;;0.55;80.05;98339.03;5017295;28;20085;-87
2022/04/02 12:18:08;;;;;;;8.13;5.95;;;;;;;0.27;80.07;98269.16;5024070;28;20049;-86
2022/04/02 12:20:39;;;;;;;9.20;6.10;;;;;;;0.41;80.43;98269.41;5005504;28;20057;-89
2022/04/02 12:23:16;;;;;;;7.28;4.70;;;;;;;0.43;80.50;98277.13;5002238;28;20050;-88